sensor_id;sensor_type;location;lat;lon;timestamp;P1;durP1;ratioP1;P2;durP2;ratioP2
41101;SDS011;26845;50.190;19.178;2023-03-01T00:00:54;140.70;;;62.80;;
41101;SDS011;26845;50.190;19.178;2023-03-01T00:03:20;133.90;;;59.80;;
41101;SDS011;26845;50.190;19.178;2023-03-01T00:05:47;138.70;;;60.40;;
41101;SDS011;26845;50.190;19.178;2023-03-01T00:08:13;138.60;;;59.30;;
41101;SDS011;26845;50.190;19.178;2023-03-01T00:10:39;141.40;;;59.70;;
41101;SDS011;26845;50.190;19.178;2023-03-01T00:13:05;141.20;;;60.90;;
41101;SDS011;26845;50.190;19.178;2023-03-01T00:15:31;134.60;;;60.70;;
41101;SDS011;26845;50.190;19.178;2023-03-01T00:17:57;147.70;;;63.80;;
41101;SDS011;26845;50.190;19.178;2023-03-01T00:20:23;361.80;;;132.70;;
41101;SDS011;26845;50.190;19.178;2023-03-01T00:22:49;201.20;;;79.50;;
41101;SDS011;26845;50.190;19.178;2023-03-01T00:25:15;163.70;;;66.30;;
41101;SDS011;26845;50.190;19.178;2023-03-01T00:27:42;151.90;;;66.90;;
41101;SDS011;26845;50.190;19.178;2023-03-01T00:30:08;152.00;;;67.20;;
41101;SDS011;26845;50.190;19.178;2023-03-01T00:32:34;158.40;;;67.80;;
41101;SDS011;26845;50.190;19.178;2023-03-01T00:35:00;150.60;;;66.80;;
41101;SDS011;26845;50.190;19.178;2023-03-01T00:37:26;151.30;;;65.80;;
41101;SDS011;26845;50.190;19.178;2023-03-01T00:39:52;153.00;;;66.40;;
41101;SDS011;26845;50.190;19.178;2023-03-01T00:42:18;151.00;;;64.00;;
41101;SDS011;26845;50.190;19.178;2023-03-01T00:44:45;138.00;;;62.60;;
41101;SDS011;26845;50.190;19.178;2023-03-01T00:47:11;154.20;;;64.90;;
41101;SDS011;26845;50.190;19.178;2023-03-01T00:49:37;156.50;;;67.70;;
41101;SDS011;26845;50.190;19.178;2023-03-01T00:52:03;155.40;;;66.20;;
41101;SDS011;26845;50.190;19.178;2023-03-01T00:54:29;163.60;;;67.30;;
41101;SDS011;26845;50.190;19.178;2023-03-01T00:56:56;153.90;;;66.90;;
41101;SDS011;26845;50.190;19.178;2023-03-01T00:59:22;154.90;;;65.50;;
41101;SDS011;26845;50.190;19.178;2023-03-01T01:01:48;150.40;;;65.60;;
41101;SDS011;26845;50.190;19.178;2023-03-01T01:04:14;142.30;;;60.10;;
41101;SDS011;26845;50.190;19.178;2023-03-01T01:06:42;148.00;;;61.80;;
41101;SDS011;26845;50.190;19.178;2023-03-01T01:09:11;143.50;;;62.10;;
41101;SDS011;26845;50.190;19.178;2023-03-01T01:11:44;139.40;;;62.10;;
41101;SDS011;26845;50.190;19.178;2023-03-01T01:14:11;137.70;;;61.80;;
41101;SDS011;26845;50.190;19.178;2023-03-01T01:16:37;142.20;;;63.90;;
41101;SDS011;26845;50.190;19.178;2023-03-01T01:19:03;143.60;;;63.70;;
41101;SDS011;26845;50.190;19.178;2023-03-01T01:21:29;141.70;;;63.30;;
41101;SDS011;26845;50.190;19.178;2023-03-01T01:23:55;143.00;;;61.30;;
41101;SDS011;26845;50.190;19.178;2023-03-01T01:26:24;144.80;;;61.90;;
41101;SDS011;26845;50.190;19.178;2023-03-01T01:28:56;146.40;;;62.90;;
41101;SDS011;26845;50.190;19.178;2023-03-01T01:31:22;137.60;;;59.20;;
41101;SDS011;26845;50.190;19.178;2023-03-01T01:33:49;141.80;;;60.60;;
41101;SDS011;26845;50.190;19.178;2023-03-01T01:36:15;141.30;;;60.00;;
41101;SDS011;26845;50.190;19.178;2023-03-01T01:38:41;135.20;;;60.10;;
41101;SDS011;26845;50.190;19.178;2023-03-01T01:41:11;142.60;;;63.70;;
41101;SDS011;26845;50.190;19.178;2023-03-01T01:43:42;143.40;;;60.60;;
41101;SDS011;26845;50.190;19.178;2023-03-01T01:46:19;135.50;;;61.10;;
41101;SDS011;26845;50.190;19.178;2023-03-01T01:48:56;142.70;;;63.40;;
41101;SDS011;26845;50.190;19.178;2023-03-01T01:51:37;150.10;;;67.90;;
41101;SDS011;26845;50.190;19.178;2023-03-01T01:54:50;151.50;;;69.60;;
41101;SDS011;26845;50.190;19.178;2023-03-01T01:57:03;152.90;;;67.40;;
41101;SDS011;26845;50.190;19.178;2023-03-01T01:59:35;165.70;;;71.60;;
41101;SDS011;26845;50.190;19.178;2023-03-01T02:02:03;160.90;;;68.40;;
41101;SDS011;26845;50.190;19.178;2023-03-01T02:04:30;149.10;;;62.20;;
41101;SDS011;26845;50.190;19.178;2023-03-01T02:07:06;125.90;;;54.40;;
41101;SDS011;26845;50.190;19.178;2023-03-01T02:09:38;130.90;;;55.90;;
41101;SDS011;26845;50.190;19.178;2023-03-01T02:12:04;133.80;;;57.90;;
41101;SDS011;26845;50.190;19.178;2023-03-01T02:14:30;131.90;;;58.30;;
41101;SDS011;26845;50.190;19.178;2023-03-01T02:16:56;138.70;;;61.80;;
41101;SDS011;26845;50.190;19.178;2023-03-01T02:22:32;147.70;;;64.60;;
41101;SDS011;26845;50.190;19.178;2023-03-01T02:25:02;140.90;;;64.80;;
41101;SDS011;26845;50.190;19.178;2023-03-01T02:27:37;139.80;;;61.90;;
41101;SDS011;26845;50.190;19.178;2023-03-01T02:30:08;133.60;;;59.70;;
41101;SDS011;26845;50.190;19.178;2023-03-01T02:32:39;140.80;;;62.60;;
41101;SDS011;26845;50.190;19.178;2023-03-01T02:35:15;149.80;;;65.50;;
41101;SDS011;26845;50.190;19.178;2023-03-01T02:37:43;142.50;;;63.40;;
41101;SDS011;26845;50.190;19.178;2023-03-01T02:40:11;142.90;;;64.00;;
41101;SDS011;26845;50.190;19.178;2023-03-01T02:42:53;139.10;;;59.90;;
41101;SDS011;26845;50.190;19.178;2023-03-01T02:45:21;146.50;;;63.60;;
41101;SDS011;26845;50.190;19.178;2023-03-01T02:47:48;141.20;;;60.20;;
41101;SDS011;26845;50.190;19.178;2023-03-01T02:50:18;146.20;;;61.40;;
41101;SDS011;26845;50.190;19.178;2023-03-01T02:53:11;140.90;;;61.40;;
41101;SDS011;26845;50.190;19.178;2023-03-01T02:55:43;148.60;;;64.80;;
41101;SDS011;26845;50.190;19.178;2023-03-01T02:58:08;150.00;;;64.00;;
41101;SDS011;26845;50.190;19.178;2023-03-01T03:00:39;139.50;;;63.70;;
41101;SDS011;26845;50.190;19.178;2023-03-01T03:03:15;150.00;;;65.40;;
41101;SDS011;26845;50.190;19.178;2023-03-01T03:05:44;148.80;;;63.70;;
41101;SDS011;26845;50.190;19.178;2023-03-01T03:08:10;158.20;;;65.90;;
41101;SDS011;26845;50.190;19.178;2023-03-01T03:10:38;154.30;;;64.90;;
41101;SDS011;26845;50.190;19.178;2023-03-01T03:13:08;151.50;;;64.80;;
41101;SDS011;26845;50.190;19.178;2023-03-01T03:15:36;151.60;;;64.30;;
41101;SDS011;26845;50.190;19.178;2023-03-01T03:18:03;142.00;;;62.40;;
41101;SDS011;26845;50.190;19.178;2023-03-01T03:20:30;152.70;;;65.40;;
41101;SDS011;26845;50.190;19.178;2023-03-01T03:22:57;143.90;;;62.40;;
41101;SDS011;26845;50.190;19.178;2023-03-01T03:25:23;137.70;;;59.70;;
41101;SDS011;26845;50.190;19.178;2023-03-01T03:27:52;136.00;;;58.80;;
41101;SDS011;26845;50.190;19.178;2023-03-01T03:30:25;142.10;;;62.30;;
41101;SDS011;26845;50.190;19.178;2023-03-01T03:32:55;150.90;;;65.00;;
41101;SDS011;26845;50.190;19.178;2023-03-01T03:35:26;151.30;;;62.50;;
41101;SDS011;26845;50.190;19.178;2023-03-01T03:38:03;148.80;;;66.80;;
41101;SDS011;26845;50.190;19.178;2023-03-01T03:40:38;156.50;;;66.10;;
41101;SDS011;26845;50.190;19.178;2023-03-01T03:43:09;145.40;;;62.20;;
41101;SDS011;26845;50.190;19.178;2023-03-01T03:45:37;155.60;;;69.40;;
41101;SDS011;26845;50.190;19.178;2023-03-01T03:48:04;153.50;;;65.90;;
41101;SDS011;26845;50.190;19.178;2023-03-01T03:50:32;152.60;;;62.60;;
41101;SDS011;26845;50.190;19.178;2023-03-01T03:53:02;135.50;;;61.70;;
41101;SDS011;26845;50.190;19.178;2023-03-01T03:55:32;141.50;;;60.40;;
41101;SDS011;26845;50.190;19.178;2023-03-01T03:57:59;135.00;;;61.40;;
41101;SDS011;26845;50.190;19.178;2023-03-01T04:00:27;136.10;;;58.80;;
41101;SDS011;26845;50.190;19.178;2023-03-01T04:02:53;195.50;;;85.50;;
41101;SDS011;26845;50.190;19.178;2023-03-01T04:05:22;178.50;;;74.00;;
41101;SDS011;26845;50.190;19.178;2023-03-01T04:07:49;158.70;;;68.30;;
41101;SDS011;26845;50.190;19.178;2023-03-01T04:10:25;149.10;;;65.30;;
41101;SDS011;26845;50.190;19.178;2023-03-01T04:12:54;163.90;;;72.10;;
41101;SDS011;26845;50.190;19.178;2023-03-01T04:15:21;163.80;;;71.50;;
41101;SDS011;26845;50.190;19.178;2023-03-01T04:17:49;151.50;;;69.60;;
41101;SDS011;26845;50.190;19.178;2023-03-01T04:20:26;155.60;;;65.20;;
41101;SDS011;26845;50.190;19.178;2023-03-01T04:22:59;150.10;;;66.10;;
41101;SDS011;26845;50.190;19.178;2023-03-01T04:25:38;148.40;;;66.30;;
41101;SDS011;26845;50.190;19.178;2023-03-01T04:28:05;144.50;;;62.40;;
41101;SDS011;26845;50.190;19.178;2023-03-01T04:30:34;145.40;;;61.50;;
41101;SDS011;26845;50.190;19.178;2023-03-01T04:33:07;138.60;;;59.20;;
41101;SDS011;26845;50.190;19.178;2023-03-01T04:35:35;127.10;;;57.70;;
41101;SDS011;26845;50.190;19.178;2023-03-01T04:38:04;126.00;;;56.30;;
41101;SDS011;26845;50.190;19.178;2023-03-01T04:40:30;122.10;;;57.00;;
41101;SDS011;26845;50.190;19.178;2023-03-01T04:42:56;123.10;;;55.90;;
41101;SDS011;26845;50.190;19.178;2023-03-01T04:45:22;118.90;;;55.80;;
41101;SDS011;26845;50.190;19.178;2023-03-01T04:47:48;122.00;;;53.50;;
41101;SDS011;26845;50.190;19.178;2023-03-01T04:50:17;121.20;;;53.40;;
41101;SDS011;26845;50.190;19.178;2023-03-01T04:52:46;112.50;;;52.30;;
41101;SDS011;26845;50.190;19.178;2023-03-01T04:55:12;116.10;;;53.50;;
41101;SDS011;26845;50.190;19.178;2023-03-01T04:57:39;128.30;;;56.30;;
41101;SDS011;26845;50.190;19.178;2023-03-01T05:00:06;110.60;;;50.10;;
41101;SDS011;26845;50.190;19.178;2023-03-01T05:03:03;76.60;;;37.30;;
41101;SDS011;26845;50.190;19.178;2023-03-01T05:05:33;118.60;;;50.80;;
41101;SDS011;26845;50.190;19.178;2023-03-01T05:08:03;117.50;;;52.50;;
41101;SDS011;26845;50.190;19.178;2023-03-01T05:10:31;116.00;;;52.10;;
41101;SDS011;26845;50.190;19.178;2023-03-01T05:13:00;117.00;;;52.00;;
41101;SDS011;26845;50.190;19.178;2023-03-01T05:15:28;117.30;;;54.10;;
41101;SDS011;26845;50.190;19.178;2023-03-01T05:17:56;117.50;;;52.60;;
41101;SDS011;26845;50.190;19.178;2023-03-01T05:20:26;115.40;;;53.80;;
41101;SDS011;26845;50.190;19.178;2023-03-01T05:22:58;118.80;;;53.50;;
41101;SDS011;26845;50.190;19.178;2023-03-01T05:25:24;133.40;;;53.20;;
41101;SDS011;26845;50.190;19.178;2023-03-01T05:27:50;125.60;;;57.00;;
41101;SDS011;26845;50.190;19.178;2023-03-01T05:30:17;119.20;;;55.40;;
41101;SDS011;26845;50.190;19.178;2023-03-01T05:32:47;124.50;;;54.20;;
41101;SDS011;26845;50.190;19.178;2023-03-01T05:35:14;121.20;;;52.00;;
41101;SDS011;26845;50.190;19.178;2023-03-01T05:37:42;116.10;;;52.20;;
41101;SDS011;26845;50.190;19.178;2023-03-01T05:40:10;113.40;;;51.80;;
41101;SDS011;26845;50.190;19.178;2023-03-01T05:42:41;122.30;;;52.70;;
41101;SDS011;26845;50.190;19.178;2023-03-01T05:45:12;114.60;;;53.30;;
41101;SDS011;26845;50.190;19.178;2023-03-01T05:47:40;118.70;;;54.60;;
41101;SDS011;26845;50.190;19.178;2023-03-01T05:50:17;116.00;;;53.60;;
41101;SDS011;26845;50.190;19.178;2023-03-01T05:52:49;124.40;;;59.20;;
41101;SDS011;26845;50.190;19.178;2023-03-01T05:55:17;134.30;;;61.00;;
41101;SDS011;26845;50.190;19.178;2023-03-01T05:57:43;132.30;;;59.30;;
41101;SDS011;26845;50.190;19.178;2023-03-01T06:00:13;146.10;;;61.00;;
41101;SDS011;26845;50.190;19.178;2023-03-01T06:02:40;123.80;;;57.40;;
41101;SDS011;26845;50.190;19.178;2023-03-01T06:05:08;138.00;;;58.90;;
41101;SDS011;26845;50.190;19.178;2023-03-01T06:07:34;125.60;;;57.80;;
41101;SDS011;26845;50.190;19.178;2023-03-01T06:10:01;142.30;;;59.50;;
41101;SDS011;26845;50.190;19.178;2023-03-01T06:12:30;116.20;;;55.70;;
41101;SDS011;26845;50.190;19.178;2023-03-01T06:14:59;129.80;;;56.60;;
41101;SDS011;26845;50.190;19.178;2023-03-01T06:17:25;123.70;;;55.20;;
41101;SDS011;26845;50.190;19.178;2023-03-01T06:19:52;128.60;;;55.40;;
41101;SDS011;26845;50.190;19.178;2023-03-01T06:22:18;122.10;;;55.20;;
41101;SDS011;26845;50.190;19.178;2023-03-01T06:24:44;123.10;;;56.60;;
41101;SDS011;26845;50.190;19.178;2023-03-01T06:27:10;122.60;;;54.80;;
41101;SDS011;26845;50.190;19.178;2023-03-01T06:29:36;127.70;;;58.20;;
41101;SDS011;26845;50.190;19.178;2023-03-01T06:32:03;124.60;;;54.90;;
41101;SDS011;26845;50.190;19.178;2023-03-01T06:34:30;124.30;;;55.60;;
41101;SDS011;26845;50.190;19.178;2023-03-01T06:36:56;120.70;;;53.40;;
41101;SDS011;26845;50.190;19.178;2023-03-01T06:39:22;119.30;;;53.90;;
41101;SDS011;26845;50.190;19.178;2023-03-01T06:41:48;125.50;;;59.00;;
41101;SDS011;26845;50.190;19.178;2023-03-01T06:44:14;127.80;;;61.10;;
41101;SDS011;26845;50.190;19.178;2023-03-01T06:46:40;131.30;;;59.50;;
41101;SDS011;26845;50.190;19.178;2023-03-01T06:49:06;125.40;;;56.20;;
41101;SDS011;26845;50.190;19.178;2023-03-01T06:51:35;129.60;;;59.70;;
41101;SDS011;26845;50.190;19.178;2023-03-01T06:54:02;127.40;;;59.60;;
41101;SDS011;26845;50.190;19.178;2023-03-01T06:56:31;132.70;;;58.70;;
41101;SDS011;26845;50.190;19.178;2023-03-01T06:58:57;128.40;;;59.50;;
41101;SDS011;26845;50.190;19.178;2023-03-01T07:01:23;134.60;;;62.00;;
41101;SDS011;26845;50.190;19.178;2023-03-01T07:03:49;132.80;;;61.10;;
41101;SDS011;26845;50.190;19.178;2023-03-01T07:06:15;136.50;;;59.50;;
41101;SDS011;26845;50.190;19.178;2023-03-01T07:08:41;143.10;;;65.10;;
41101;SDS011;26845;50.190;19.178;2023-03-01T07:11:07;138.60;;;63.00;;
41101;SDS011;26845;50.190;19.178;2023-03-01T07:13:34;129.30;;;57.20;;
41101;SDS011;26845;50.190;19.178;2023-03-01T07:16:00;126.50;;;57.00;;
41101;SDS011;26845;50.190;19.178;2023-03-01T07:18:26;125.60;;;57.80;;
41101;SDS011;26845;50.190;19.178;2023-03-01T07:20:52;131.80;;;58.10;;
41101;SDS011;26845;50.190;19.178;2023-03-01T07:23:18;118.00;;;55.30;;
41101;SDS011;26845;50.190;19.178;2023-03-01T07:25:50;122.10;;;54.70;;
41101;SDS011;26845;50.190;19.178;2023-03-01T07:28:17;122.80;;;53.90;;
41101;SDS011;26845;50.190;19.178;2023-03-01T07:30:43;125.60;;;53.70;;
41101;SDS011;26845;50.190;19.178;2023-03-01T07:33:09;127.70;;;54.00;;
41101;SDS011;26845;50.190;19.178;2023-03-01T07:35:35;129.90;;;57.20;;
41101;SDS011;26845;50.190;19.178;2023-03-01T07:38:01;118.10;;;56.50;;
41101;SDS011;26845;50.190;19.178;2023-03-01T07:40:27;102.70;;;47.00;;
41101;SDS011;26845;50.190;19.178;2023-03-01T07:42:57;106.20;;;47.20;;
41101;SDS011;26845;50.190;19.178;2023-03-01T07:47:52;92.40;;;41.80;;
41101;SDS011;26845;50.190;19.178;2023-03-01T07:50:19;81.50;;;39.00;;
41101;SDS011;26845;50.190;19.178;2023-03-01T07:52:45;82.70;;;40.30;;
41101;SDS011;26845;50.190;19.178;2023-03-01T07:55:11;84.40;;;40.30;;
41101;SDS011;26845;50.190;19.178;2023-03-01T07:57:37;76.90;;;37.60;;
41101;SDS011;26845;50.190;19.178;2023-03-01T08:00:04;73.80;;;37.50;;
41101;SDS011;26845;50.190;19.178;2023-03-01T08:02:30;82.10;;;39.70;;
41101;SDS011;26845;50.190;19.178;2023-03-01T08:04:56;78.00;;;41.30;;
41101;SDS011;26845;50.190;19.178;2023-03-01T08:07:22;82.20;;;39.40;;
41101;SDS011;26845;50.190;19.178;2023-03-01T08:09:48;67.90;;;38.40;;
41101;SDS011;26845;50.190;19.178;2023-03-01T08:12:14;73.10;;;38.50;;
41101;SDS011;26845;50.190;19.178;2023-03-01T08:14:42;66.60;;;35.30;;
41101;SDS011;26845;50.190;19.178;2023-03-01T08:17:08;66.80;;;35.60;;
41101;SDS011;26845;50.190;19.178;2023-03-01T08:19:34;73.20;;;36.80;;
41101;SDS011;26845;50.190;19.178;2023-03-01T08:22:03;74.50;;;37.80;;
41101;SDS011;26845;50.190;19.178;2023-03-01T08:24:29;76.70;;;36.60;;
41101;SDS011;26845;50.190;19.178;2023-03-01T08:26:55;67.00;;;35.50;;
41101;SDS011;26845;50.190;19.178;2023-03-01T08:29:22;66.70;;;35.50;;
41101;SDS011;26845;50.190;19.178;2023-03-01T08:31:49;66.90;;;35.20;;
41101;SDS011;26845;50.190;19.178;2023-03-01T08:34:16;64.80;;;33.30;;
41101;SDS011;26845;50.190;19.178;2023-03-01T08:36:43;48.70;;;26.70;;
41101;SDS011;26845;50.190;19.178;2023-03-01T08:39:11;52.30;;;26.80;;
41101;SDS011;26845;50.190;19.178;2023-03-01T08:41:38;50.00;;;27.00;;
41101;SDS011;26845;50.190;19.178;2023-03-01T08:44:04;44.90;;;25.70;;
41101;SDS011;26845;50.190;19.178;2023-03-01T08:46:36;53.30;;;27.00;;
41101;SDS011;26845;50.190;19.178;2023-03-01T08:49:07;43.10;;;24.20;;
41101;SDS011;26845;50.190;19.178;2023-03-01T08:51:38;33.90;;;20.00;;
41101;SDS011;26845;50.190;19.178;2023-03-01T08:54:10;35.30;;;19.80;;
41101;SDS011;26845;50.190;19.178;2023-03-01T08:56:38;35.80;;;21.10;;
41101;SDS011;26845;50.190;19.178;2023-03-01T08:59:04;35.60;;;19.30;;
41101;SDS011;26845;50.190;19.178;2023-03-01T09:01:30;33.20;;;18.40;;
41101;SDS011;26845;50.190;19.178;2023-03-01T09:03:56;35.60;;;20.30;;
41101;SDS011;26845;50.190;19.178;2023-03-01T09:06:22;29.30;;;17.10;;
41101;SDS011;26845;50.190;19.178;2023-03-01T09:08:49;24.80;;;15.00;;
41101;SDS011;26845;50.190;19.178;2023-03-01T09:11:17;26.00;;;14.90;;
41101;SDS011;26845;50.190;19.178;2023-03-01T09:16:14;27.70;;;15.70;;
41101;SDS011;26845;50.190;19.178;2023-03-01T09:18:43;24.40;;;14.80;;
41101;SDS011;26845;50.190;19.178;2023-03-01T09:23:43;34.70;;;18.50;;
41101;SDS011;26845;50.190;19.178;2023-03-01T09:26:11;36.60;;;20.20;;
41101;SDS011;26845;50.190;19.178;2023-03-01T09:28:41;38.80;;;21.70;;
41101;SDS011;26845;50.190;19.178;2023-03-01T09:31:07;38.50;;;21.40;;
41101;SDS011;26845;50.190;19.178;2023-03-01T09:33:33;37.80;;;22.70;;
41101;SDS011;26845;50.190;19.178;2023-03-01T09:36:00;40.40;;;21.80;;
41101;SDS011;26845;50.190;19.178;2023-03-01T09:38:28;37.30;;;21.30;;
41101;SDS011;26845;50.190;19.178;2023-03-01T09:40:54;34.70;;;20.10;;
41101;SDS011;26845;50.190;19.178;2023-03-01T09:46:30;38.60;;;20.20;;
41101;SDS011;26845;50.190;19.178;2023-03-01T09:49:04;33.80;;;20.20;;
41101;SDS011;26845;50.190;19.178;2023-03-01T09:51:36;37.90;;;20.70;;
41101;SDS011;26845;50.190;19.178;2023-03-01T09:54:02;34.50;;;20.20;;
41101;SDS011;26845;50.190;19.178;2023-03-01T09:56:30;33.10;;;19.10;;
41101;SDS011;26845;50.190;19.178;2023-03-01T10:02:03;31.50;;;21.00;;
41101;SDS011;26845;50.190;19.178;2023-03-01T10:04:45;33.60;;;19.40;;
41101;SDS011;26845;50.190;19.178;2023-03-01T10:07:33;35.50;;;20.00;;
41101;SDS011;26845;50.190;19.178;2023-03-01T10:10:06;33.20;;;20.10;;
41101;SDS011;26845;50.190;19.178;2023-03-01T10:12:34;36.10;;;22.00;;
41101;SDS011;26845;50.190;19.178;2023-03-01T10:18:02;41.60;;;21.90;;
41101;SDS011;26845;50.190;19.178;2023-03-01T10:23:32;37.70;;;22.90;;
41101;SDS011;26845;50.190;19.178;2023-03-01T10:26:09;38.50;;;21.10;;
41101;SDS011;26845;50.190;19.178;2023-03-01T10:31:38;36.40;;;20.40;;
41101;SDS011;26845;50.190;19.178;2023-03-01T10:34:10;36.00;;;21.60;;
41101;SDS011;26845;50.190;19.178;2023-03-01T10:36:38;39.50;;;22.70;;
41101;SDS011;26845;50.190;19.178;2023-03-01T10:39:22;36.50;;;21.40;;
41101;SDS011;26845;50.190;19.178;2023-03-01T10:44:55;36.10;;;20.60;;
41101;SDS011;26845;50.190;19.178;2023-03-01T10:47:25;38.30;;;21.00;;
41101;SDS011;26845;50.190;19.178;2023-03-01T10:50:03;35.00;;;19.70;;
41101;SDS011;26845;50.190;19.178;2023-03-01T10:52:42;34.70;;;19.80;;
41101;SDS011;26845;50.190;19.178;2023-03-01T10:55:33;34.60;;;21.20;;
41101;SDS011;26845;50.190;19.178;2023-03-01T10:58:20;36.80;;;20.20;;
41101;SDS011;26845;50.190;19.178;2023-03-01T11:00:51;35.60;;;21.70;;
41101;SDS011;26845;50.190;19.178;2023-03-01T11:03:37;36.50;;;22.40;;
41101;SDS011;26845;50.190;19.178;2023-03-01T11:11:45;40.70;;;23.00;;
41101;SDS011;26845;50.190;19.178;2023-03-01T11:14:18;38.90;;;22.70;;
41101;SDS011;26845;50.190;19.178;2023-03-01T11:16:48;40.90;;;23.40;;
41101;SDS011;26845;50.190;19.178;2023-03-01T11:19:23;42.60;;;24.40;;
41101;SDS011;26845;50.190;19.178;2023-03-01T11:24:43;43.50;;;24.10;;
41101;SDS011;26845;50.190;19.178;2023-03-01T11:27:15;45.00;;;25.90;;
41101;SDS011;26845;50.190;19.178;2023-03-01T11:29:45;41.00;;;26.40;;
41101;SDS011;26845;50.190;19.178;2023-03-01T11:32:17;46.90;;;26.80;;
41101;SDS011;26845;50.190;19.178;2023-03-01T11:34:48;44.50;;;25.00;;
41101;SDS011;26845;50.190;19.178;2023-03-01T11:37:44;47.40;;;26.20;;
41101;SDS011;26845;50.190;19.178;2023-03-01T11:40:23;39.90;;;25.30;;
41101;SDS011;26845;50.190;19.178;2023-03-01T11:49:05;44.90;;;27.40;;
41101;SDS011;26845;50.190;19.178;2023-03-01T11:51:59;41.00;;;25.90;;
41101;SDS011;26845;50.190;19.178;2023-03-01T12:00:35;41.30;;;25.60;;
41101;SDS011;26845;50.190;19.178;2023-03-01T12:03:39;42.70;;;25.10;;
41101;SDS011;26845;50.190;19.178;2023-03-01T12:06:28;43.20;;;26.40;;
41101;SDS011;26845;50.190;19.178;2023-03-01T12:15:11;39.70;;;22.00;;
41101;SDS011;26845;50.190;19.178;2023-03-01T12:18:08;40.20;;;20.70;;
41101;SDS011;26845;50.190;19.178;2023-03-01T12:26:36;35.30;;;21.30;;
41101;SDS011;26845;50.190;19.178;2023-03-01T12:29:18;39.30;;;21.40;;
41101;SDS011;26845;50.190;19.178;2023-03-01T12:31:55;35.30;;;21.00;;
41101;SDS011;26845;50.190;19.178;2023-03-01T12:37:58;38.50;;;20.30;;
41101;SDS011;26845;50.190;19.178;2023-03-01T12:40:46;34.00;;;19.80;;
41101;SDS011;26845;50.190;19.178;2023-03-01T12:43:36;28.70;;;17.20;;
41101;SDS011;26845;50.190;19.178;2023-03-01T12:49:34;35.60;;;18.00;;
41101;SDS011;26845;50.190;19.178;2023-03-01T12:52:13;31.40;;;17.20;;
41101;SDS011;26845;50.190;19.178;2023-03-01T12:54:44;28.80;;;17.40;;
41101;SDS011;26845;50.190;19.178;2023-03-01T12:57:29;27.70;;;16.30;;
41101;SDS011;26845;50.190;19.178;2023-03-01T13:00:26;31.30;;;17.30;;
41101;SDS011;26845;50.190;19.178;2023-03-01T13:03:04;29.60;;;16.80;;
41101;SDS011;26845;50.190;19.178;2023-03-01T13:05:34;33.90;;;17.40;;
41101;SDS011;26845;50.190;19.178;2023-03-01T13:08:16;31.70;;;16.50;;
41101;SDS011;26845;50.190;19.178;2023-03-01T13:10:49;28.30;;;16.90;;
41101;SDS011;26845;50.190;19.178;2023-03-01T13:13:21;24.60;;;16.50;;
41101;SDS011;26845;50.190;19.178;2023-03-01T13:15:50;27.40;;;15.90;;
41101;SDS011;26845;50.190;19.178;2023-03-01T13:20:56;26.10;;;15.70;;
41101;SDS011;26845;50.190;19.178;2023-03-01T13:23:25;26.90;;;15.30;;
41101;SDS011;26845;50.190;19.178;2023-03-01T13:26:00;26.30;;;15.10;;
41101;SDS011;26845;50.190;19.178;2023-03-01T13:33:53;31.60;;;15.60;;
41101;SDS011;26845;50.190;19.178;2023-03-01T13:41:54;23.60;;;13.40;;
41101;SDS011;26845;50.190;19.178;2023-03-01T13:46:49;24.60;;;14.10;;
41101;SDS011;26845;50.190;19.178;2023-03-01T13:49:18;23.70;;;12.40;;
41101;SDS011;26845;50.190;19.178;2023-03-01T13:51:47;25.90;;;13.40;;
41101;SDS011;26845;50.190;19.178;2023-03-01T13:54:15;25.60;;;13.70;;
41101;SDS011;26845;50.190;19.178;2023-03-01T13:56:51;25.50;;;15.00;;
41101;SDS011;26845;50.190;19.178;2023-03-01T13:59:19;25.10;;;13.30;;
41101;SDS011;26845;50.190;19.178;2023-03-01T14:01:54;22.10;;;12.70;;
41101;SDS011;26845;50.190;19.178;2023-03-01T14:04:27;18.60;;;11.40;;
41101;SDS011;26845;50.190;19.178;2023-03-01T14:07:18;17.30;;;11.50;;
41101;SDS011;26845;50.190;19.178;2023-03-01T14:09:51;17.40;;;11.90;;
41101;SDS011;26845;50.190;19.178;2023-03-01T14:15:10;18.70;;;11.80;;
41101;SDS011;26845;50.190;19.178;2023-03-01T14:20:59;25.30;;;14.80;;
41101;SDS011;26845;50.190;19.178;2023-03-01T14:23:26;17.70;;;10.00;;
41101;SDS011;26845;50.190;19.178;2023-03-01T14:25:53;18.60;;;10.90;;
41101;SDS011;26845;50.190;19.178;2023-03-01T14:28:31;17.00;;;10.60;;
41101;SDS011;26845;50.190;19.178;2023-03-01T14:31:02;18.20;;;10.10;;
41101;SDS011;26845;50.190;19.178;2023-03-01T14:36:11;18.10;;;9.80;;
41101;SDS011;26845;50.190;19.178;2023-03-01T14:38:42;21.90;;;11.20;;
41101;SDS011;26845;50.190;19.178;2023-03-01T14:43:38;22.30;;;11.90;;
41101;SDS011;26845;50.190;19.178;2023-03-01T14:46:24;20.90;;;11.10;;
41101;SDS011;26845;50.190;19.178;2023-03-01T14:48:55;19.70;;;10.40;;
41101;SDS011;26845;50.190;19.178;2023-03-01T14:51:23;18.40;;;10.90;;
41101;SDS011;26845;50.190;19.178;2023-03-01T14:53:49;17.80;;;11.10;;
41101;SDS011;26845;50.190;19.178;2023-03-01T14:56:16;16.80;;;10.00;;
41101;SDS011;26845;50.190;19.178;2023-03-01T14:58:43;21.30;;;11.40;;
41101;SDS011;26845;50.190;19.178;2023-03-01T15:01:10;19.50;;;11.60;;
41101;SDS011;26845;50.190;19.178;2023-03-01T15:03:41;21.20;;;12.30;;
41101;SDS011;26845;50.190;19.178;2023-03-01T15:06:09;18.70;;;11.20;;
41101;SDS011;26845;50.190;19.178;2023-03-01T15:08:44;24.80;;;11.40;;
41101;SDS011;26845;50.190;19.178;2023-03-01T15:11:23;23.20;;;12.30;;
41101;SDS011;26845;50.190;19.178;2023-03-01T15:13:54;21.30;;;11.20;;
41101;SDS011;26845;50.190;19.178;2023-03-01T15:16:22;19.40;;;11.30;;
41101;SDS011;26845;50.190;19.178;2023-03-01T15:18:53;20.20;;;10.70;;
41101;SDS011;26845;50.190;19.178;2023-03-01T15:21:22;18.00;;;11.50;;
41101;SDS011;26845;50.190;19.178;2023-03-01T15:23:55;17.90;;;9.60;;
41101;SDS011;26845;50.190;19.178;2023-03-01T15:26:59;17.80;;;11.20;;
41101;SDS011;26845;50.190;19.178;2023-03-01T15:29:32;16.20;;;10.30;;
41101;SDS011;26845;50.190;19.178;2023-03-01T15:32:06;20.70;;;12.60;;
41101;SDS011;26845;50.190;19.178;2023-03-01T15:34:57;15.60;;;10.50;;
41101;SDS011;26845;50.190;19.178;2023-03-01T15:37:38;18.10;;;11.30;;
41101;SDS011;26845;50.190;19.178;2023-03-01T15:40:25;19.30;;;9.80;;
41101;SDS011;26845;50.190;19.178;2023-03-01T15:43:03;14.00;;;8.60;;
41101;SDS011;26845;50.190;19.178;2023-03-01T15:45:30;16.90;;;9.00;;
41101;SDS011;26845;50.190;19.178;2023-03-01T15:48:03;17.40;;;8.60;;
41101;SDS011;26845;50.190;19.178;2023-03-01T15:50:31;12.90;;;7.30;;
41101;SDS011;26845;50.190;19.178;2023-03-01T15:53:03;18.80;;;9.80;;
41101;SDS011;26845;50.190;19.178;2023-03-01T15:55:32;14.90;;;9.00;;
41101;SDS011;26845;50.190;19.178;2023-03-01T15:57:59;20.40;;;11.70;;